Nambour, Australia
Current Conditions -  °F | °C
As of 1:00 PM on Sunday 26 Oct 2014 (Local Time) from YBBN Reporting Station
Clear Clear  
Wind Chill: 77°   Ceiling: Unl
Heat Index: 79°   Visibility: 6mi
Dew Point: 66°   Wind: 23mph
Humidity: 69%   Direction: 10°N
Pressure: 29.91"   Gusts: NA
Location:  26.63°S, 152.96°E
Report Text: YBBN 260300Z 01020KT 9999 25/19 Q1013 NOSIG
Loading
Personal Weather Stations






























Interactive Weather Map
Tropical Storm Tracking
New forecast layout! Learn more

10-Day Weather Forecast

Advertisements
Track Severe Weather on mobile